Time;durP1;ratioP1;P1;durP2;ratioP2;P2;SDS_P1;SDS_P2;PMS_P1;PMS_P2;Temp;Humidity;BMP_temperature;BMP_pressure;BME280_temperature;BME280_humidity;BME280_pressure;Samples;Min_cycle;Max_cycle;Signal;HPM_P1;HPM_P2
2022/04/18 00:03:04;;;;;;;1.85;1.75;;;;;;;;;;788487;74;26223;-72
2022/04/18 00:06:14;;;;;;;1.75;1.65;;;;;;;;;;788222;75;26616;-71
2022/04/18 00:07:17;;;;;;;1.90;1.80;;;;;;;;;;741445;79;26261;-72
2022/04/18 00:08:21;;;;;;;1.90;1.67;;;;;;;;;;761244;77;26315;-73
2022/04/18 00:09:25;;;;;;;1.45;1.45;;;;;;;;;;764432;77;26250;-72
2022/04/18 00:14:12;;;;;;;1.85;1.75;;;;;;;;;;751140;79;26223;-72
2022/04/18 00:15:15;;;;;;;1.50;1.50;;;;;;;;;;751121;79;26224;-71
2022/04/18 00:16:18;;;;;;;1.82;1.72;;;;;;;;;;751171;79;24663;-71
2022/04/18 00:17:20;;;;;;;1.70;1.60;;;;;;;;;;752467;79;26252;-71
2022/04/18 00:18:23;;;;;;;1.70;1.60;;;;;;;;;;751892;79;26224;-72
2022/04/18 00:19:26;;;;;;;1.72;1.62;;;;;;;;;;751108;79;26224;-72
2022/04/18 00:23:58;;;;;;;1.82;1.75;;;;;;;;;;751329;79;26590;-71
2022/04/18 00:25:03;;;;;;;1.60;1.50;;;;;;;;;;751324;79;26232;-72
2022/04/18 00:26:06;;;;;;;2.02;1.92;;;;;;;;;;751317;79;26728;-72
2022/04/18 00:27:08;;;;;;;1.67;1.57;;;;;;;;;;751467;79;26237;-72
2022/04/18 00:28:12;;;;;;;2.10;2.00;;;;;;;;;;764471;77;26250;-71
2022/04/18 00:29:16;;;;;;;1.77;1.67;;;;;;;;;;754116;78;26347;-71
2022/04/18 00:32:30;;;;;;;1.55;1.50;;;;;;;;;;766873;77;26186;-72
2022/04/18 00:33:33;;;;;;;2.10;1.90;;;;;;;;;;780856;75;24643;-73
2022/04/18 00:34:37;;;;;;;1.70;1.65;;;;;;;;;;780798;76;24279;-72
2022/04/18 00:35:41;;;;;;;1.90;1.80;;;;;;;;;;780850;76;26298;-72
2022/04/18 00:36:45;;;;;;;1.57;1.47;;;;;;;;;;780747;76;26322;-72
2022/04/18 00:37:48;;;;;;;1.80;1.70;;;;;;;;;;780729;76;26248;-72
2022/04/18 00:38:51;;;;;;;1.92;1.70;;;;;;;;;;780817;76;26230;-71
2022/04/18 00:43:41;;;;;;;1.70;1.60;;;;;;;;;;766866;77;24186;-72
2022/04/18 00:44:47;;;;;;;1.80;1.70;;;;;;;;;;766781;77;26355;-71
2022/04/18 00:45:51;;;;;;;1.82;1.72;;;;;;;;;;759303;78;26261;-71
2022/04/18 00:46:54;;;;;;;1.67;1.60;;;;;;;;;;766859;77;26245;-72
2022/04/18 00:47:58;;;;;;;1.77;1.67;;;;;;;;;;759219;78;26276;-72
2022/04/18 00:49:01;;;;;;;1.90;1.80;;;;;;;;;;766777;77;26347;-71
2022/04/18 00:53:58;;;;;;;1.72;1.62;;;;;;;;;;783267;76;26148;-72
2022/04/18 00:55:02;;;;;;;1.82;1.72;;;;;;;;;;793131;75;26704;-72
2022/04/18 00:56:09;;;;;;;1.77;1.67;;;;;;;;;;794060;75;26724;-72
2022/04/18 00:57:11;;;;;;;1.85;1.75;;;;;;;;;;794143;75;26226;-71
2022/04/18 00:58:15;;;;;;;1.60;1.50;;;;;;;;;;791780;74;26261;-71
2022/04/18 00:59:20;;;;;;;1.62;1.62;;;;;;;;;;794003;75;26241;-72
2022/04/18 01:02:51;;;;;;;1.40;1.40;;;;;;;;;;780278;76;26269;-72
2022/04/18 01:03:54;;;;;;;1.72;1.62;;;;;;;;;;780437;76;26300;-71
2022/04/18 01:04:57;;;;;;;1.70;1.60;;;;;;;;;;780493;76;26292;-71
2022/04/18 01:06:01;;;;;;;1.90;1.80;;;;;;;;;;780489;76;26336;-72
2022/04/18 01:07:04;;;;;;;1.60;1.50;;;;;;;;;;780537;76;26238;-72
2022/04/18 01:08:08;;;;;;;1.80;1.70;;;;;;;;;;780571;76;26687;-73
2022/04/18 01:09:15;;;;;;;1.80;1.70;;;;;;;;;;780606;76;26238;-72
2022/04/18 01:12:34;;;;;;;1.80;1.75;;;;;;;;;;780837;76;26171;-72
2022/04/18 01:13:43;;;;;;;1.85;1.80;;;;;;;;;;778255;76;26252;-72
2022/04/18 01:14:53;;;;;;;1.57;1.50;;;;;;;;;;775053;76;26252;-73
2022/04/18 01:16:11;;;;;;;1.95;1.85;;;;;;;;;;764475;77;26256;-73
2022/04/18 01:17:16;;;;;;;1.70;1.60;;;;;;;;;;775250;76;26311;-72
2022/04/18 01:24:00;;;;;;;1.75;1.65;;;;;;;;;;763087;78;24630;-72
2022/04/18 01:29:13;;;;;;;1.67;1.57;;;;;;;;;;746680;79;26715;-70
2022/04/18 01:32:14;;;;;;;1.72;1.62;;;;;;;;;;733447;80;26406;-72
2022/04/18 01:33:16;;;;;;;1.90;1.80;;;;;;;;;;735247;80;26360;-71
2022/04/18 01:34:19;;;;;;;1.70;1.60;;;;;;;;;;735328;80;24695;-71
2022/04/18 01:35:22;;;;;;;1.85;1.80;;;;;;;;;;735255;80;26290;-71
2022/04/18 01:36:29;;;;;;;1.90;1.80;;;;;;;;;;735288;80;24794;-71
2022/04/18 01:37:32;;;;;;;1.80;1.70;;;;;;;;;;756617;78;26261;-72
2022/04/18 01:45:38;;;;;;;2.10;1.60;;;;;;;;;;759601;78;26302;-71
2022/04/18 01:46:42;;;;;;;1.98;1.87;;;;;;;;;;759570;78;26262;-73
2022/04/18 01:47:45;;;;;;;1.60;1.60;;;;;;;;;;759579;78;26395;-71
2022/04/18 01:48:51;;;;;;;1.60;1.50;;;;;;;;;;759583;78;26310;-71
2022/04/18 01:52:23;;;;;;;1.82;1.72;;;;;;;;;;758595;78;26181;-71
2022/04/18 01:53:27;;;;;;;2.35;1.70;;;;;;;;;;759007;78;26241;-72
2022/04/18 01:54:30;;;;;;;1.87;1.77;;;;;;;;;;772779;77;26243;-71
2022/04/18 01:55:35;;;;;;;1.80;1.70;;;;;;;;;;772761;77;26310;-71
2022/04/18 01:56:41;;;;;;;1.67;1.60;;;;;;;;;;743024;79;26239;-71
2022/04/18 01:57:45;;;;;;;1.92;1.82;;;;;;;;;;759083;78;26237;-72
2022/04/18 01:58:48;;;;;;;2.02;1.92;;;;;;;;;;758623;78;26299;-71
2022/04/18 02:03:32;;;;;;;1.87;1.77;;;;;;;;;;752910;78;26263;-71
2022/04/18 02:04:35;;;;;;;1.80;1.70;;;;;;;;;;752881;79;26279;-72
2022/04/18 02:05:40;;;;;;;1.82;1.72;;;;;;;;;;763978;76;26253;-71
2022/04/18 02:06:43;;;;;;;1.85;1.75;;;;;;;;;;761912;77;26738;-72
2022/04/18 02:07:47;;;;;;;1.87;1.77;;;;;;;;;;762257;78;26249;-72
2022/04/18 02:08:50;;;;;;;1.98;1.87;;;;;;;;;;762868;78;26233;-71
2022/04/18 02:12:21;;;;;;;1.70;1.60;;;;;;;;;;774772;76;26249;-71
2022/04/18 02:13:25;;;;;;;1.60;1.50;;;;;;;;;;775099;76;26241;-71
2022/04/18 02:14:29;;;;;;;1.87;1.77;;;;;;;;;;774920;76;26296;-71
2022/04/18 02:15:32;;;;;;;1.47;1.47;;;;;;;;;;774939;76;26279;-71
2022/04/18 02:16:35;;;;;;;1.80;1.75;;;;;;;;;;774824;76;26230;-71
2022/04/18 02:17:39;;;;;;;1.98;1.87;;;;;;;;;;774960;76;26279;-74
2022/04/18 02:18:42;;;;;;;4.90;1.70;;;;;;;;;;776058;76;26234;-73
2022/04/18 02:23:16;;;;;;;2.30;1.80;;;;;;;;;;735175;80;26182;-71
2022/04/18 02:24:19;;;;;;;1.85;1.75;;;;;;;;;;735075;80;26362;-73
2022/04/18 02:27:39;;;;;;;1.77;1.67;;;;;;;;;;735223;80;26280;-71
2022/04/18 02:28:48;;;;;;;1.70;1.60;;;;;;;;;;739927;80;26269;-71
2022/04/18 02:33:16;;;;;;;1.92;1.85;;;;;;;;;;763481;77;26257;-73
2022/04/18 02:34:20;;;;;;;1.67;1.67;;;;;;;;;;763382;77;26241;-72
2022/04/18 02:35:24;;;;;;;1.85;1.75;;;;;;;;;;763357;77;26261;-71
2022/04/18 02:36:28;;;;;;;2.00;1.90;;;;;;;;;;763280;77;26355;-71
2022/04/18 02:37:31;;;;;;;1.92;1.82;;;;;;;;;;763314;77;26315;-71
2022/04/18 02:38:36;;;;;;;2.00;1.90;;;;;;;;;;763276;77;26261;-71
2022/04/18 02:41:24;;;;;;;1.90;1.80;;;;;;;;;;772117;76;26228;-70
2022/04/18 02:42:27;;;;;;;1.95;1.85;;;;;;;;;;773551;77;26684;-71
2022/04/18 02:43:30;;;;;;;2.65;1.80;;;;;;;;;;784758;75;24650;-72
2022/04/18 02:44:35;;;;;;;2.00;1.90;;;;;;;;;;784777;75;26695;-70
2022/04/18 02:45:39;;;;;;;2.20;1.90;;;;;;;;;;784840;75;26229;-72
2022/04/18 02:46:45;;;;;;;1.57;1.57;;;;;;;;;;785105;75;26686;-72
2022/04/18 02:47:48;;;;;;;1.57;1.57;;;;;;;;;;785234;75;26237;-71
2022/04/18 02:51:09;;;;;;;1.70;1.60;;;;;;;;;;773005;76;26685;-71
2022/04/18 02:52:12;;;;;;;1.67;1.55;;;;;;;;;;752103;78;26275;-72
2022/04/18 02:53:15;;;;;;;1.80;1.70;;;;;;;;;;754090;78;26271;-73
2022/04/18 02:54:19;;;;;;;1.65;1.60;;;;;;;;;;754339;78;26271;-71
2022/04/18 02:55:22;;;;;;;1.60;1.50;;;;;;;;;;754154;78;26334;-71
2022/04/18 02:56:26;;;;;;;1.50;1.40;;;;;;;;;;754163;78;26267;-72
2022/04/18 02:57:29;;;;;;;1.40;1.40;;;;;;;;;;768643;77;26266;-71
2022/04/18 02:58:32;;;;;;;1.60;1.60;;;;;;;;;;768684;77;26265;-71
2022/04/18 03:02:05;;;;;;;1.45;1.45;;;;;;;;;;768926;77;26202;-72
2022/04/18 03:03:09;;;;;;;1.50;1.50;;;;;;;;;;762867;78;26244;-69
2022/04/18 03:04:18;;;;;;;1.62;1.52;;;;;;;;;;763001;78;26248;-70
2022/04/18 03:05:21;;;;;;;1.50;1.40;;;;;;;;;;763655;77;26240;-72
2022/04/18 03:06:24;;;;;;;1.32;1.20;;;;;;;;;;763101;78;24709;-72
2022/04/18 03:07:27;;;;;;;1.50;1.50;;;;;;;;;;763132;78;26706;-72
2022/04/18 03:08:31;;;;;;;1.60;1.50;;;;;;;;;;763109;78;26248;-71
2022/04/18 03:16:59;;;;;;;1.30;1.30;;;;;;;;;;766438;77;26207;-72
2022/04/18 03:18:02;;;;;;;1.65;1.40;;;;;;;;;;753576;78;26292;-71
2022/04/18 03:21:38;;;;;;;1.17;1.17;;;;;;;;;;754130;78;26253;-72
2022/04/18 03:22:42;;;;;;;1.20;1.20;;;;;;;;;;731079;81;26338;-71
2022/04/18 03:23:46;;;;;;;1.22;1.22;;;;;;;;;;745167;79;26269;-72
2022/04/18 03:24:48;;;;;;;1.30;1.30;;;;;;;;;;753608;78;26352;-71
2022/04/18 03:25:53;;;;;;;1.30;1.30;;;;;;;;;;753600;78;26334;-72
2022/04/18 03:26:56;;;;;;;1.30;1.30;;;;;;;;;;761226;77;26732;-69
2022/04/18 03:27:59;;;;;;;1.10;1.10;;;;;;;;;;772831;77;26329;-72
2022/04/18 03:31:00;;;;;;;1.10;1.10;;;;;;;;;;759708;78;26341;-68
2022/04/18 03:32:04;;;;;;;1.30;1.30;;;;;;;;;;759195;78;26323;-73
2022/04/18 03:33:07;;;;;;;1.70;1.60;;;;;;;;;;761351;78;26256;-71
2022/04/18 03:34:10;;;;;;;1.87;1.77;;;;;;;;;;774837;76;26754;-71
2022/04/18 03:35:13;;;;;;;2.08;1.98;;;;;;;;;;745394;79;26716;-72
2022/04/18 03:40:38;;;;;;;2.25;2.12;;;;;;;;;;762336;78;26305;-72
2022/04/18 03:41:46;;;;;;;2.40;2.30;;;;;;;;;;775029;76;26249;-73
2022/04/18 03:42:51;;;;;;;1.90;1.80;;;;;;;;;;768916;77;26255;-73
2022/04/18 03:43:54;;;;;;;1.60;1.50;;;;;;;;;;769161;77;26231;-71
2022/04/18 03:45:02;;;;;;;3.58;2.80;;;;;;;;;;769314;77;26263;-73
2022/04/18 03:46:05;;;;;;;2.72;2.62;;;;;;;;;;769368;77;26243;-72
2022/04/18 03:47:09;;;;;;;2.00;1.90;;;;;;;;;;769327;77;26699;-74
2022/04/18 03:48:14;;;;;;;1.60;1.50;;;;;;;;;;769229;77;26255;-72
2022/04/18 03:49:20;;;;;;;1.50;1.40;;;;;;;;;;769176;77;26251;-74
2022/04/18 03:50:25;;;;;;;1.30;1.30;;;;;;;;;;769234;77;26247;-74
2022/04/18 03:51:31;;;;;;;1.50;1.50;;;;;;;;;;769188;77;26251;-73
2022/04/18 03:52:37;;;;;;;1.65;1.65;;;;;;;;;;769115;77;26305;-70
2022/04/18 03:53:42;;;;;;;1.80;1.70;;;;;;;;;;768968;77;26323;-70
2022/04/18 03:54:46;;;;;;;1.32;1.32;;;;;;;;;;769107;77;26314;-71
2022/04/18 03:55:49;;;;;;;1.30;1.30;;;;;;;;;;769161;77;26332;-73
2022/04/18 03:56:57;;;;;;;1.40;1.40;;;;;;;;;;769310;77;26309;-73
2022/04/18 03:58:21;;;;;;;1.77;1.72;;;;;;;;;;753061;79;26249;-72
2022/04/18 03:59:25;;;;;;;1.80;1.70;;;;;;;;;;740169;79;26270;-72
2022/04/18 04:00:30;;;;;;;1.80;1.70;;;;;;;;;;746763;79;26420;-71
2022/04/18 04:01:37;;;;;;;3.00;2.80;;;;;;;;;;765817;77;26244;-71
2022/04/18 04:02:43;;;;;;;3.77;3.37;;;;;;;;;;765455;77;26325;-71
2022/04/18 04:03:46;;;;;;;4.55;3.98;;;;;;;;;;765150;77;26247;-72
2022/04/18 04:04:49;;;;;;;6.53;3.58;;;;;;;;;;765150;77;26305;-73
2022/04/18 04:05:55;;;;;;;5.80;2.60;;;;;;;;;;765165;77;26302;-71
2022/04/18 04:10:10;;;;;;;1.92;1.82;;;;;;;;;;786037;75;26210;-72
2022/04/18 04:11:23;;;;;;;2.30;2.10;;;;;;;;;;781718;75;26329;-73
2022/04/18 04:12:32;;;;;;;2.50;2.30;;;;;;;;;;786153;75;26227;-71
2022/04/18 04:13:37;;;;;;;2.10;2.00;;;;;;;;;;786204;75;26222;-72
2022/04/18 04:14:41;;;;;;;2.20;2.10;;;;;;;;;;810888;73;26702;-70
2022/04/18 04:18:00;;;;;;;2.40;2.20;;;;;;;;;;799600;74;26145;-73
2022/04/18 04:19:03;;;;;;;2.05;1.95;;;;;;;;;;802989;74;26212;-71
2022/04/18 04:20:08;;;;;;;2.33;2.12;;;;;;;;;;832840;71;26283;-72
2022/04/18 04:21:12;;;;;;;2.40;2.20;;;;;;;;;;832715;71;26202;-71
2022/04/18 04:22:16;;;;;;;2.62;2.20;;;;;;;;;;833521;71;26260;-72
2022/04/18 04:23:19;;;;;;;2.15;2.05;;;;;;;;;;833154;71;26210;-73
2022/04/18 04:24:23;;;;;;;2.20;2.00;;;;;;;;;;832993;71;26248;-73
2022/04/18 04:29:21;;;;;;;1.90;1.80;;;;;;;;;;787251;75;26670;-71
2022/04/18 04:30:24;;;;;;;2.70;2.50;;;;;;;;;;787138;75;26216;-71
2022/04/18 04:33:26;;;;;;;3.45;2.80;;;;;;;;;;810783;73;26264;-71
2022/04/18 04:34:30;;;;;;;2.72;2.52;;;;;;;;;;810708;73;26218;-71
2022/04/18 04:38:03;;;;;;;2.87;2.67;;;;;;;;;;810795;73;26217;-71
2022/04/18 04:39:06;;;;;;;3.70;3.40;;;;;;;;;;747278;79;26254;-71
2022/04/18 04:42:12;;;;;;;2.95;2.75;;;;;;;;;;747439;79;26195;-71
2022/04/18 04:43:15;;;;;;;2.25;2.05;;;;;;;;;;704579;83;26296;-71
2022/04/18 04:44:18;;;;;;;2.37;2.27;;;;;;;;;;716809;83;26297;-71
2022/04/18 04:48:49;;;;;;;2.20;2.10;;;;;;;;;;754077;79;26218;-71
2022/04/18 04:49:53;;;;;;;2.87;2.77;;;;;;;;;;753770;79;26251;-71
2022/04/18 04:50:56;;;;;;;2.40;2.30;;;;;;;;;;743819;79;26272;-71
2022/04/18 04:52:00;;;;;;;3.12;2.83;;;;;;;;;;744370;79;24673;-71
2022/04/18 04:53:04;;;;;;;3.22;3.02;;;;;;;;;;753857;79;26247;-72
2022/04/18 04:54:07;;;;;;;2.85;2.67;;;;;;;;;;753910;79;26251;-71
2022/04/18 04:55:13;;;;;;;2.90;2.70;;;;;;;;;;753896;79;26243;-72
2022/04/18 04:57:42;;;;;;;2.95;2.75;;;;;;;;;;772952;77;26728;-71
2022/04/18 04:58:45;;;;;;;2.83;2.62;;;;;;;;;;751074;79;26227;-72
2022/04/18 04:59:48;;;;;;;6.30;2.67;;;;;;;;;;761399;77;26314;-72
2022/04/18 05:00:50;;;;;;;3.12;2.92;;;;;;;;;;759287;78;26255;-72
2022/04/18 05:01:53;;;;;;;3.45;3.15;;;;;;;;;;772573;77;26373;-70
2022/04/18 05:02:58;;;;;;;2.75;2.55;;;;;;;;;;749912;79;26256;-71
2022/04/18 05:04:03;;;;;;;4.33;3.87;;;;;;;;;;760396;78;26735;-71
2022/04/18 05:05:06;;;;;;;4.60;4.20;;;;;;;;;;760497;78;26247;-71
2022/04/18 05:08:20;;;;;;;4.50;4.10;;;;;;;;;;760684;78;26150;-70
2022/04/18 05:09:23;;;;;;;3.55;2.87;;;;;;;;;;747769;79;26269;-71
2022/04/18 05:10:27;;;;;;;3.60;3.17;;;;;;;;;;747190;79;24306;-71
2022/04/18 05:11:30;;;;;;;3.85;3.45;;;;;;;;;;748358;79;26267;-71
2022/04/18 05:12:33;;;;;;;5.17;3.02;;;;;;;;;;748217;79;26271;-71
2022/04/18 05:13:36;;;;;;;3.90;3.60;;;;;;;;;;747968;79;26267;-71
2022/04/18 05:14:39;;;;;;;3.72;3.42;;;;;;;;;;747947;79;26341;-71
2022/04/18 05:17:27;;;;;;;3.72;3.40;;;;;;;;;;778697;76;26273;-71
2022/04/18 05:18:30;;;;;;;3.72;3.37;;;;;;;;;;786328;75;26227;-71
2022/04/18 05:19:36;;;;;;;3.90;3.45;;;;;;;;;;785728;75;26682;-73
2022/04/18 05:20:39;;;;;;;3.60;3.30;;;;;;;;;;784859;75;26671;-71
2022/04/18 05:21:42;;;;;;;3.62;3.40;;;;;;;;;;784833;75;26703;-70
2022/04/18 05:22:52;;;;;;;4.15;3.60;;;;;;;;;;784820;75;26230;-70
2022/04/18 05:23:55;;;;;;;3.72;3.22;;;;;;;;;;785101;75;26237;-72
2022/04/18 05:24:58;;;;;;;3.70;3.40;;;;;;;;;;785029;75;26234;-71
2022/04/18 05:29:31;;;;;;;3.80;3.50;;;;;;;;;;799303;73;26227;-72
2022/04/18 05:30:33;;;;;;;3.30;3.00;;;;;;;;;;775040;76;26285;-72
2022/04/18 05:31:37;;;;;;;3.05;2.75;;;;;;;;;;775069;76;26707;-70
2022/04/18 05:32:44;;;;;;;3.40;3.10;;;;;;;;;;788088;75;26737;-73
2022/04/18 05:33:48;;;;;;;3.90;3.60;;;;;;;;;;788151;75;26241;-71
2022/04/18 05:34:55;;;;;;;4.03;3.52;;;;;;;;;;788193;75;26698;-73
2022/04/18 05:38:18;;;;;;;3.05;2.75;;;;;;;;;;786374;75;26178;-71
2022/04/18 05:39:18;;;;;;;3.90;3.47;;;;;;;;;;773188;76;24321;-72
2022/04/18 05:40:20;;;;;;;3.25;2.98;;;;;;;;;;750023;79;26253;-71
2022/04/18 05:41:23;;;;;;;4.35;3.20;;;;;;;;;;759894;78;26317;-71
2022/04/18 05:42:26;;;;;;;3.30;3.05;;;;;;;;;;749929;79;26244;-70
2022/04/18 05:43:29;;;;;;;3.45;3.15;;;;;;;;;;759526;78;26724;-75
2022/04/18 05:44:33;;;;;;;3.62;3.42;;;;;;;;;;744484;79;26341;-72
2022/04/18 05:49:17;;;;;;;3.98;3.52;;;;;;;;;;784578;75;26321;-71
2022/04/18 05:50:21;;;;;;;3.62;3.33;;;;;;;;;;784903;75;26691;-72
2022/04/18 05:51:25;;;;;;;3.35;3.05;;;;;;;;;;785205;75;26225;-72
2022/04/18 05:52:32;;;;;;;4.70;3.70;;;;;;;;;;785275;75;26229;-72
2022/04/18 05:53:36;;;;;;;3.80;3.50;;;;;;;;;;785601;75;26229;-72
2022/04/18 05:54:39;;;;;;;3.92;3.62;;;;;;;;;;785693;75;26263;-73
2022/04/18 05:57:57;;;;;;;3.70;3.40;;;;;;;;;;784884;75;26237;-71
2022/04/18 05:59:00;;;;;;;3.92;3.47;;;;;;;;;;799145;74;26216;-71
2022/04/18 06:00:04;;;;;;;3.55;3.22;;;;;;;;;;799070;74;26297;-70
2022/04/18 06:01:06;;;;;;;5.50;3.50;;;;;;;;;;799180;74;26302;-70
2022/04/18 06:02:09;;;;;;;3.25;3.05;;;;;;;;;;799090;74;26224;-71
2022/04/18 06:03:12;;;;;;;3.35;3.15;;;;;;;;;;799128;74;26224;-71
2022/04/18 06:04:15;;;;;;;3.17;2.98;;;;;;;;;;798971;74;26228;-73
2022/04/18 06:07:50;;;;;;;4.67;3.62;;;;;;;;;;771289;76;26275;-71
2022/04/18 06:08:52;;;;;;;2.77;2.58;;;;;;;;;;772557;77;26255;-71
2022/04/18 06:09:55;;;;;;;3.12;2.90;;;;;;;;;;773021;77;24274;-71
2022/04/18 06:10:58;;;;;;;4.25;3.77;;;;;;;;;;772801;77;26682;-71
2022/04/18 06:12:01;;;;;;;4.00;3.25;;;;;;;;;;773004;77;26254;-72
2022/04/18 06:20:02;;;;;;;3.60;3.30;;;;;;;;;;798822;74;26653;-71
2022/04/18 06:21:06;;;;;;;3.60;3.30;;;;;;;;;;798705;74;26311;-71
2022/04/18 06:22:10;;;;;;;3.70;3.40;;;;;;;;;;798642;73;26244;-71
2022/04/18 06:23:14;;;;;;;3.87;3.47;;;;;;;;;;799381;74;26237;-71
2022/04/18 06:24:18;;;;;;;4.08;3.55;;;;;;;;;;799736;74;26348;-71
2022/04/18 06:29:07;;;;;;;3.27;3.00;;;;;;;;;;801785;74;26220;-72
2022/04/18 06:30:10;;;;;;;3.70;3.40;;;;;;;;;;777516;76;26287;-74
2022/04/18 06:31:13;;;;;;;4.03;3.60;;;;;;;;;;792905;75;26678;-71
2022/04/18 06:32:16;;;;;;;3.50;3.30;;;;;;;;;;792883;75;26671;-72
2022/04/18 06:33:20;;;;;;;3.40;3.20;;;;;;;;;;792826;75;26226;-71
2022/04/18 06:37:38;;;;;;;3.25;2.95;;;;;;;;;;763382;77;26223;-71
2022/04/18 06:38:41;;;;;;;3.00;2.80;;;;;;;;;;766616;77;26306;-71
2022/04/18 06:39:44;;;;;;;3.42;3.22;;;;;;;;;;767355;77;26249;-71
2022/04/18 06:40:47;;;;;;;3.50;3.20;;;;;;;;;;767188;77;26299;-72
2022/04/18 06:41:49;;;;;;;5.22;3.20;;;;;;;;;;767259;77;26788;-71
2022/04/18 06:42:52;;;;;;;5.37;3.00;;;;;;;;;;767494;77;26338;-71
2022/04/18 06:43:55;;;;;;;4.30;3.90;;;;;;;;;;767305;77;26713;-71
2022/04/18 06:46:55;;;;;;;3.80;3.50;;;;;;;;;;771183;75;26811;-72
2022/04/18 06:47:58;;;;;;;3.62;3.35;;;;;;;;;;784220;75;26735;-71
2022/04/18 06:49:01;;;;;;;4.33;3.60;;;;;;;;;;784486;75;26268;-73
2022/04/18 06:50:11;;;;;;;3.60;3.30;;;;;;;;;;785054;75;26240;-72
2022/04/18 06:51:12;;;;;;;3.60;3.30;;;;;;;;;;785869;75;26237;-71
2022/04/18 06:52:15;;;;;;;3.87;3.58;;;;;;;;;;785319;75;26236;-71
2022/04/18 06:53:18;;;;;;;6.35;3.52;;;;;;;;;;784650;75;26685;-71
2022/04/18 06:57:58;;;;;;;3.55;3.25;;;;;;;;;;772499;76;26321;-72
2022/04/18 06:59:01;;;;;;;4.22;3.30;;;;;;;;;;772510;77;26271;-71
2022/04/18 07:00:04;;;;;;;4.17;3.85;;;;;;;;;;773553;77;26260;-74
2022/04/18 07:08:05;;;;;;;3.33;3.12;;;;;;;;;;747524;79;26308;-71
2022/04/18 07:09:08;;;;;;;3.47;3.22;;;;;;;;;;747479;79;26372;-71
2022/04/18 07:10:10;;;;;;;3.50;3.20;;;;;;;;;;753252;77;26281;-75
2022/04/18 07:11:13;;;;;;;3.25;3.05;;;;;;;;;;772817;77;26770;-73
2022/04/18 07:12:22;;;;;;;3.92;3.55;;;;;;;;;;772702;77;26250;-71
2022/04/18 07:13:25;;;;;;;4.15;3.25;;;;;;;;;;772749;77;26430;-70
2022/04/18 07:18:10;;;;;;;3.33;3.02;;;;;;;;;;748792;79;26197;-71
2022/04/18 07:19:13;;;;;;;3.30;3.10;;;;;;;;;;748691;79;26266;-71
2022/04/18 07:20:16;;;;;;;3.15;2.95;;;;;;;;;;748807;79;26328;-70
2022/04/18 07:21:20;;;;;;;3.58;3.20;;;;;;;;;;748805;79;26270;-72
2022/04/18 07:22:23;;;;;;;3.92;3.62;;;;;;;;;;748728;79;26267;-71
2022/04/18 07:23:26;;;;;;;3.95;3.65;;;;;;;;;;748793;79;26329;-71
2022/04/18 07:26:45;;;;;;;4.00;3.70;;;;;;;;;;774208;76;26205;-73
2022/04/18 07:27:48;;;;;;;4.15;3.45;;;;;;;;;;761949;78;26254;-72
2022/04/18 07:28:51;;;;;;;3.40;3.10;;;;;;;;;;762065;78;26368;-72
2022/04/18 07:29:55;;;;;;;3.90;3.60;;;;;;;;;;762000;78;26311;-71
2022/04/18 07:30:58;;;;;;;3.45;3.15;;;;;;;;;;761934;78;26303;-70
2022/04/18 07:32:01;;;;;;;4.95;3.85;;;;;;;;;;761912;78;26250;-73
2022/04/18 07:33:04;;;;;;;3.20;3.00;;;;;;;;;;761920;78;26246;-71
2022/04/18 07:36:11;;;;;;;3.70;3.40;;;;;;;;;;784951;75;26282;-71
2022/04/18 07:37:13;;;;;;;3.30;3.10;;;;;;;;;;789703;75;26714;-72
2022/04/18 07:39:37;;;;;;;3.30;3.10;;;;;;;;;;789410;75;26359;-71
2022/04/18 07:40:42;;;;;;;3.12;2.90;;;;;;;;;;784686;75;26746;-75
2022/04/18 07:41:44;;;;;;;3.37;3.08;;;;;;;;;;784590;75;26240;-72
2022/04/18 07:42:47;;;;;;;3.67;3.37;;;;;;;;;;789448;75;26708;-70
2022/04/18 07:43:50;;;;;;;3.70;3.30;;;;;;;;;;784551;75;26223;-71
2022/04/18 07:47:11;;;;;;;4.75;3.55;;;;;;;;;;780675;76;26181;-72
2022/04/18 07:52:08;;;;;;;3.70;3.40;;;;;;;;;;776646;76;26187;-70
2022/04/18 07:53:13;;;;;;;3.52;3.22;;;;;;;;;;775958;76;26243;-73
2022/04/18 07:56:01;;;;;;;3.70;3.40;;;;;;;;;;776752;76;26266;-71
2022/04/18 07:57:04;;;;;;;3.30;3.00;;;;;;;;;;776672;76;26287;-72
2022/04/18 07:58:07;;;;;;;3.30;3.10;;;;;;;;;;771389;77;26718;-70
2022/04/18 07:59:10;;;;;;;3.45;3.20;;;;;;;;;;771321;77;26238;-72
2022/04/18 08:00:13;;;;;;;5.22;3.72;;;;;;;;;;771401;77;26675;-71
2022/04/18 08:01:16;;;;;;;4.20;3.80;;;;;;;;;;771455;77;26726;-71
2022/04/18 08:02:19;;;;;;;3.92;3.52;;;;;;;;;;771502;77;26317;-71
2022/04/18 08:03:23;;;;;;;4.87;3.22;;;;;;;;;;772239;77;26222;-71
2022/04/18 08:08:21;;;;;;;3.52;3.22;;;;;;;;;;762053;78;26285;-71
2022/04/18 08:09:23;;;;;;;3.62;3.33;;;;;;;;;;776578;76;26238;-71
2022/04/18 08:10:26;;;;;;;3.52;3.22;;;;;;;;;;776698;76;26295;-71
2022/04/18 08:11:29;;;;;;;3.77;3.58;;;;;;;;;;776635;76;26331;-71
2022/04/18 08:12:32;;;;;;;3.87;3.55;;;;;;;;;;776648;76;26246;-71
2022/04/18 08:13:34;;;;;;;3.67;3.37;;;;;;;;;;776614;76;26725;-71
2022/04/18 08:16:53;;;;;;;3.98;3.40;;;;;;;;;;777358;76;26187;-71
2022/04/18 08:17:57;;;;;;;4.60;3.72;;;;;;;;;;749556;79;26762;-70
2022/04/18 08:18:59;;;;;;;5.90;4.15;;;;;;;;;;749669;79;26343;-71
2022/04/18 08:20:03;;;;;;;6.97;4.35;;;;;;;;;;749891;79;26277;-71
2022/04/18 08:21:07;;;;;;;5.95;4.40;;;;;;;;;;749965;79;26328;-72
2022/04/18 08:22:10;;;;;;;6.28;3.65;;;;;;;;;;749017;78;26828;-73
2022/04/18 08:23:13;;;;;;;5.00;4.20;;;;;;;;;;749552;79;26348;-71
2022/04/18 08:26:08;;;;;;;4.03;3.72;;;;;;;;;;750266;79;26206;-71
2022/04/18 08:32:39;;;;;;;3.20;2.90;;;;;;;;;;781346;76;26710;-71
2022/04/18 08:33:42;;;;;;;2.70;2.50;;;;;;;;;;780111;76;26693;-71
2022/04/18 08:42:06;;;;;;;3.50;3.20;;;;;;;;;;769913;77;26202;-72
2022/04/18 08:43:09;;;;;;;2.92;2.72;;;;;;;;;;769839;77;26253;-70
2022/04/18 08:46:14;;;;;;;3.00;2.75;;;;;;;;;;770155;77;26639;-71
2022/04/18 08:52:45;;;;;;;2.75;2.55;;;;;;;;;;756414;78;26268;-72
2022/04/18 08:57:29;;;;;;;2.10;2.00;;;;;;;;;;787799;75;26189;-72
2022/04/18 08:58:33;;;;;;;2.52;2.33;;;;;;;;;;787655;75;26296;-71
2022/04/18 08:59:37;;;;;;;2.40;2.20;;;;;;;;;;787760;75;26280;-72
2022/04/18 09:00:40;;;;;;;3.65;3.27;;;;;;;;;;787709;75;26276;-72
2022/04/18 09:01:52;;;;;;;2.17;2.08;;;;;;;;;;787794;75;26291;-71
2022/04/18 09:02:55;;;;;;;2.30;2.20;;;;;;;;;;787935;75;26297;-72
2022/04/18 09:06:14;;;;;;;2.85;2.65;;;;;;;;;;775761;76;26229;-72
2022/04/18 09:07:17;;;;;;;2.70;2.20;;;;;;;;;;777322;76;26241;-71
2022/04/18 09:08:20;;;;;;;2.20;2.10;;;;;;;;;;777490;76;26694;-72
2022/04/18 09:09:29;;;;;;;2.65;1.75;;;;;;;;;;777372;76;26295;-71
2022/04/18 09:10:32;;;;;;;2.40;2.30;;;;;;;;;;777434;76;26687;-70
2022/04/18 09:11:37;;;;;;;2.50;2.40;;;;;;;;;;777413;76;26707;-70
2022/04/18 09:12:46;;;;;;;2.50;2.40;;;;;;;;;;777591;76;26295;-72
2022/04/18 09:17:12;;;;;;;2.27;2.10;;;;;;;;;;734173;80;26750;-71
2022/04/18 09:18:17;;;;;;;2.20;2.00;;;;;;;;;;709053;83;26306;-71
2022/04/18 09:19:21;;;;;;;2.30;2.10;;;;;;;;;;702962;84;26308;-71
2022/04/18 09:20:24;;;;;;;2.20;2.10;;;;;;;;;;710231;83;26346;-71
2022/04/18 09:21:26;;;;;;;1.98;1.87;;;;;;;;;;710212;83;26291;-70
2022/04/18 09:26:24;;;;;;;2.10;2.00;;;;;;;;;;757444;78;26250;-71
2022/04/18 09:27:31;;;;;;;2.47;1.80;;;;;;;;;;757446;78;26307;-70
2022/04/18 09:28:35;;;;;;;1.92;1.82;;;;;;;;;;757986;78;26219;-71
2022/04/18 09:29:41;;;;;;;2.10;2.00;;;;;;;;;;757919;78;26282;-70
2022/04/18 09:30:44;;;;;;;2.20;2.00;;;;;;;;;;757866;78;26652;-71
2022/04/18 09:31:47;;;;;;;2.47;2.27;;;;;;;;;;757911;78;26224;-70
2022/04/18 09:32:51;;;;;;;4.45;3.70;;;;;;;;;;757858;78;26274;-70
2022/04/18 09:36:09;;;;;;;2.70;2.50;;;;;;;;;;757692;78;26209;-70
2022/04/18 09:37:17;;;;;;;2.62;2.52;;;;;;;;;;762148;77;26251;-71
2022/04/18 09:38:20;;;;;;;1.82;1.72;;;;;;;;;;762334;78;26305;-72
2022/04/18 09:39:27;;;;;;;2.60;2.40;;;;;;;;;;762316;78;26716;-71
2022/04/18 09:40:27;;;;;;;2.60;2.40;;;;;;;;;;761066;77;26716;-71
2022/04/18 09:41:31;;;;;;;2.35;2.25;;;;;;;;;;762267;78;26263;-71
2022/04/18 09:42:34;;;;;;;2.20;2.10;;;;;;;;;;762237;78;26255;-72
2022/04/18 09:45:37;;;;;;;1.95;1.85;;;;;;;;;;764957;77;26212;-72
2022/04/18 09:46:40;;;;;;;2.33;2.22;;;;;;;;;;764759;77;26731;-71
2022/04/18 09:47:43;;;;;;;2.08;1.98;;;;;;;;;;765654;77;26232;-72
2022/04/18 09:48:48;;;;;;;2.22;2.12;;;;;;;;;;765319;77;26235;-71
2022/04/18 09:49:52;;;;;;;2.27;2.17;;;;;;;;;;765616;77;26247;-72
2022/04/18 09:51:01;;;;;;;1.80;1.80;;;;;;;;;;765960;77;26236;-70
2022/04/18 09:52:06;;;;;;;2.02;1.92;;;;;;;;;;764928;77;26248;-71
2022/04/18 09:53:10;;;;;;;2.05;1.95;;;;;;;;;;764985;77;26239;-70
2022/04/18 09:56:19;;;;;;;2.00;1.90;;;;;;;;;;761545;78;26250;-72
2022/04/18 09:57:23;;;;;;;2.10;1.77;;;;;;;;;;748575;79;26266;-71
2022/04/18 09:58:26;;;;;;;2.10;2.00;;;;;;;;;;761268;77;26334;-70
2022/04/18 09:59:31;;;;;;;2.40;2.30;;;;;;;;;;765677;76;26696;-70
2022/04/18 10:00:34;;;;;;;2.10;2.00;;;;;;;;;;763041;78;26698;-70
2022/04/18 10:01:37;;;;;;;2.22;2.12;;;;;;;;;;761700;78;26256;-70
2022/04/18 10:02:40;;;;;;;2.75;2.55;;;;;;;;;;761410;78;26677;-72
2022/04/18 10:07:10;;;;;;;3.02;2.77;;;;;;;;;;752521;79;26314;-69
2022/04/18 10:08:13;;;;;;;3.30;3.02;;;;;;;;;;752401;78;26247;-68
2022/04/18 10:09:16;;;;;;;2.90;2.55;;;;;;;;;;752427;79;26263;-68